sensor_id;sensor_type;location;lat;lon;timestamp;P1;durP1;ratioP1;P2;durP2;ratioP2
57663;SDS011;43493;53.098;6.064;2024-01-11T00:00:50;32.10;;;21.73;;
57663;SDS011;43493;53.098;6.064;2024-01-11T00:03:16;32.97;;;21.73;;
57663;SDS011;43493;53.098;6.064;2024-01-11T00:05:42;36.13;;;23.23;;
57663;SDS011;43493;53.098;6.064;2024-01-11T00:08:08;33.45;;;21.98;;
57663;SDS011;43493;53.098;6.064;2024-01-11T00:10:33;33.20;;;23.20;;
57663;SDS011;43493;53.098;6.064;2024-01-11T00:12:59;33.80;;;23.00;;
57663;SDS011;43493;53.098;6.064;2024-01-11T00:15:25;34.50;;;23.83;;
57663;SDS011;43493;53.098;6.064;2024-01-11T00:17:50;35.30;;;22.63;;
57663;SDS011;43493;53.098;6.064;2024-01-11T00:20:16;31.60;;;21.70;;
57663;SDS011;43493;53.098;6.064;2024-01-11T00:22:42;34.60;;;24.27;;
57663;SDS011;43493;53.098;6.064;2024-01-11T00:25:07;37.20;;;23.80;;
57663;SDS011;43493;53.098;6.064;2024-01-11T00:27:33;31.87;;;22.13;;
57663;SDS011;43493;53.098;6.064;2024-01-11T00:29:59;35.43;;;23.60;;
57663;SDS011;43493;53.098;6.064;2024-01-11T00:32:25;32.67;;;23.47;;
57663;SDS011;43493;53.098;6.064;2024-01-11T00:34:51;35.35;;;24.10;;
57663;SDS011;43493;53.098;6.064;2024-01-11T00:37:17;38.83;;;24.83;;
57663;SDS011;43493;53.098;6.064;2024-01-11T00:39:43;38.30;;;24.90;;
57663;SDS011;43493;53.098;6.064;2024-01-11T00:42:09;37.53;;;25.77;;
57663;SDS011;43493;53.098;6.064;2024-01-11T00:44:35;36.13;;;24.05;;
57663;SDS011;43493;53.098;6.064;2024-01-11T00:47:00;34.77;;;23.50;;
57663;SDS011;43493;53.098;6.064;2024-01-11T00:49:26;36.67;;;24.17;;
57663;SDS011;43493;53.098;6.064;2024-01-11T00:51:52;36.03;;;23.87;;
57663;SDS011;43493;53.098;6.064;2024-01-11T00:54:17;33.70;;;23.13;;
57663;SDS011;43493;53.098;6.064;2024-01-11T00:56:43;36.63;;;24.63;;
57663;SDS011;43493;53.098;6.064;2024-01-11T00:59:09;35.90;;;25.03;;
57663;SDS011;43493;53.098;6.064;2024-01-11T01:01:34;37.70;;;24.20;;
57663;SDS011;43493;53.098;6.064;2024-01-11T01:04:00;39.10;;;25.67;;
57663;SDS011;43493;53.098;6.064;2024-01-11T01:06:26;39.33;;;26.63;;
57663;SDS011;43493;53.098;6.064;2024-01-11T01:08:53;38.45;;;25.67;;
57663;SDS011;43493;53.098;6.064;2024-01-11T01:11:20;36.10;;;24.40;;
57663;SDS011;43493;53.098;6.064;2024-01-11T01:13:46;36.63;;;24.50;;
57663;SDS011;43493;53.098;6.064;2024-01-11T01:16:11;37.43;;;25.03;;
57663;SDS011;43493;53.098;6.064;2024-01-11T01:18:37;41.10;;;26.33;;
57663;SDS011;43493;53.098;6.064;2024-01-11T01:21:03;38.07;;;25.87;;
57663;SDS011;43493;53.098;6.064;2024-01-11T01:23:32;37.40;;;24.50;;
57663;SDS011;43493;53.098;6.064;2024-01-11T01:25:57;37.50;;;24.60;;
57663;SDS011;43493;53.098;6.064;2024-01-11T01:28:23;40.17;;;25.77;;
57663;SDS011;43493;53.098;6.064;2024-01-11T01:30:49;39.37;;;26.07;;
57663;SDS011;43493;53.098;6.064;2024-01-11T01:33:14;37.83;;;25.10;;
57663;SDS011;43493;53.098;6.064;2024-01-11T01:35:40;39.70;;;26.77;;
57663;SDS011;43493;53.098;6.064;2024-01-11T01:38:06;40.47;;;26.67;;
57663;SDS011;43493;53.098;6.064;2024-01-11T01:40:32;39.33;;;26.57;;
57663;SDS011;43493;53.098;6.064;2024-01-11T01:42:58;39.60;;;25.90;;
57663;SDS011;43493;53.098;6.064;2024-01-11T01:45:25;38.80;;;26.20;;
57663;SDS011;43493;53.098;6.064;2024-01-11T01:47:50;42.77;;;26.80;;
57663;SDS011;43493;53.098;6.064;2024-01-11T01:50:16;41.80;;;26.80;;
57663;SDS011;43493;53.098;6.064;2024-01-11T01:52:43;40.50;;;26.42;;
57663;SDS011;43493;53.098;6.064;2024-01-11T01:55:09;41.92;;;26.13;;
57663;SDS011;43493;53.098;6.064;2024-01-11T01:57:37;42.35;;;27.92;;
57663;SDS011;43493;53.098;6.064;2024-01-11T02:00:05;44.78;;;27.80;;
57663;SDS011;43493;53.098;6.064;2024-01-11T02:02:31;43.03;;;26.73;;
57663;SDS011;43493;53.098;6.064;2024-01-11T02:05:00;43.15;;;27.02;;
57663;SDS011;43493;53.098;6.064;2024-01-11T02:07:26;43.17;;;27.35;;
57663;SDS011;43493;53.098;6.064;2024-01-11T02:09:52;41.03;;;27.13;;
57663;SDS011;43493;53.098;6.064;2024-01-11T02:12:18;44.00;;;28.00;;
57663;SDS011;43493;53.098;6.064;2024-01-11T02:14:44;42.90;;;27.03;;
57663;SDS011;43493;53.098;6.064;2024-01-11T02:17:09;45.40;;;29.15;;
57663;SDS011;43493;53.098;6.064;2024-01-11T02:19:35;47.07;;;28.13;;
57663;SDS011;43493;53.098;6.064;2024-01-11T02:22:02;41.60;;;27.43;;
57663;SDS011;43493;53.098;6.064;2024-01-11T02:24:37;43.55;;;28.75;;
57663;SDS011;43493;53.098;6.064;2024-01-11T02:27:03;46.60;;;29.70;;
57663;SDS011;43493;53.098;6.064;2024-01-11T02:29:30;41.58;;;28.15;;
57663;SDS011;43493;53.098;6.064;2024-01-11T02:31:56;43.75;;;28.90;;
57663;SDS011;43493;53.098;6.064;2024-01-11T02:34:23;42.63;;;27.83;;
57663;SDS011;43493;53.098;6.064;2024-01-11T02:36:51;45.05;;;28.92;;
57663;SDS011;43493;53.098;6.064;2024-01-11T02:39:18;45.35;;;29.27;;
57663;SDS011;43493;53.098;6.064;2024-01-11T02:41:44;43.08;;;27.38;;
57663;SDS011;43493;53.098;6.064;2024-01-11T02:44:12;43.50;;;27.75;;
57663;SDS011;43493;53.098;6.064;2024-01-11T02:46:38;47.23;;;30.07;;
57663;SDS011;43493;53.098;6.064;2024-01-11T02:49:04;42.67;;;28.60;;
57663;SDS011;43493;53.098;6.064;2024-01-11T02:51:29;45.87;;;28.27;;
57663;SDS011;43493;53.098;6.064;2024-01-11T02:53:55;43.70;;;29.30;;
57663;SDS011;43493;53.098;6.064;2024-01-11T02:56:20;45.77;;;27.73;;
57663;SDS011;43493;53.098;6.064;2024-01-11T02:58:46;40.40;;;27.00;;
57663;SDS011;43493;53.098;6.064;2024-01-11T03:01:12;45.13;;;29.00;;
57663;SDS011;43493;53.098;6.064;2024-01-11T03:03:37;42.73;;;28.40;;
57663;SDS011;43493;53.098;6.064;2024-01-11T03:06:03;46.20;;;30.17;;
57663;SDS011;43493;53.098;6.064;2024-01-11T03:08:29;44.80;;;29.03;;
57663;SDS011;43493;53.098;6.064;2024-01-11T03:10:55;42.17;;;28.23;;
57663;SDS011;43493;53.098;6.064;2024-01-11T03:13:20;42.63;;;28.70;;
57663;SDS011;43493;53.098;6.064;2024-01-11T03:15:48;41.17;;;27.13;;
57663;SDS011;43493;53.098;6.064;2024-01-11T03:18:14;43.17;;;28.20;;
57663;SDS011;43493;53.098;6.064;2024-01-11T03:20:40;43.03;;;27.85;;
57663;SDS011;43493;53.098;6.064;2024-01-11T03:23:06;42.20;;;27.40;;
57663;SDS011;43493;53.098;6.064;2024-01-11T03:25:32;42.73;;;28.20;;
57663;SDS011;43493;53.098;6.064;2024-01-11T03:27:58;46.87;;;30.00;;
57663;SDS011;43493;53.098;6.064;2024-01-11T03:30:26;43.45;;;28.00;;
57663;SDS011;43493;53.098;6.064;2024-01-11T03:32:53;41.78;;;27.25;;
57663;SDS011;43493;53.098;6.064;2024-01-11T03:35:18;43.60;;;28.53;;
57663;SDS011;43493;53.098;6.064;2024-01-11T03:37:45;44.08;;;29.30;;
57663;SDS011;43493;53.098;6.064;2024-01-11T03:40:11;40.77;;;27.43;;
57663;SDS011;43493;53.098;6.064;2024-01-11T03:42:37;41.97;;;28.13;;
57663;SDS011;43493;53.098;6.064;2024-01-11T03:45:03;42.77;;;27.37;;
57663;SDS011;43493;53.098;6.064;2024-01-11T03:47:29;44.17;;;27.88;;
57663;SDS011;43493;53.098;6.064;2024-01-11T03:49:55;41.70;;;27.80;;
57663;SDS011;43493;53.098;6.064;2024-01-11T03:52:21;42.28;;;27.98;;
57663;SDS011;43493;53.098;6.064;2024-01-11T03:54:47;43.78;;;28.02;;
57663;SDS011;43493;53.098;6.064;2024-01-11T03:57:13;43.45;;;27.45;;
57663;SDS011;43493;53.098;6.064;2024-01-11T03:59:39;45.88;;;28.08;;
57663;SDS011;43493;53.098;6.064;2024-01-11T04:02:05;43.33;;;28.52;;
57663;SDS011;43493;53.098;6.064;2024-01-11T04:04:32;47.13;;;30.25;;
57663;SDS011;43493;53.098;6.064;2024-01-11T04:06:58;40.70;;;28.13;;
57663;SDS011;43493;53.098;6.064;2024-01-11T04:09:23;43.47;;;28.40;;
57663;SDS011;43493;53.098;6.064;2024-01-11T04:11:49;43.57;;;28.60;;
57663;SDS011;43493;53.098;6.064;2024-01-11T04:14:15;44.97;;;30.17;;
57663;SDS011;43493;53.098;6.064;2024-01-11T04:16:41;43.60;;;28.97;;
57663;SDS011;43493;53.098;6.064;2024-01-11T04:19:10;44.70;;;28.17;;
57663;SDS011;43493;53.098;6.064;2024-01-11T04:21:35;44.40;;;29.47;;
57663;SDS011;43493;53.098;6.064;2024-01-11T04:24:04;45.38;;;29.00;;
57663;SDS011;43493;53.098;6.064;2024-01-11T04:26:33;43.83;;;28.20;;
57663;SDS011;43493;53.098;6.064;2024-01-11T04:28:59;46.78;;;28.92;;
57663;SDS011;43493;53.098;6.064;2024-01-11T04:31:25;45.43;;;29.17;;
57663;SDS011;43493;53.098;6.064;2024-01-11T04:33:51;46.05;;;28.70;;
57663;SDS011;43493;53.098;6.064;2024-01-11T04:36:17;46.57;;;30.20;;
57663;SDS011;43493;53.098;6.064;2024-01-11T04:38:43;45.23;;;28.60;;
57663;SDS011;43493;53.098;6.064;2024-01-11T04:41:12;42.42;;;27.95;;
57663;SDS011;43493;53.098;6.064;2024-01-11T04:43:42;44.28;;;28.67;;
57663;SDS011;43493;53.098;6.064;2024-01-11T04:46:21;45.78;;;29.08;;
57663;SDS011;43493;53.098;6.064;2024-01-11T04:48:48;44.65;;;29.33;;
57663;SDS011;43493;53.098;6.064;2024-01-11T04:51:15;45.20;;;28.13;;
57663;SDS011;43493;53.098;6.064;2024-01-11T04:53:42;45.05;;;29.58;;
57663;SDS011;43493;53.098;6.064;2024-01-11T04:56:09;49.15;;;29.80;;
57663;SDS011;43493;53.098;6.064;2024-01-11T04:58:38;43.25;;;28.40;;
57663;SDS011;43493;53.098;6.064;2024-01-11T05:01:05;47.25;;;29.45;;
57663;SDS011;43493;53.098;6.064;2024-01-11T05:03:32;44.92;;;29.45;;
57663;SDS011;43493;53.098;6.064;2024-01-11T05:05:58;44.43;;;29.00;;
57663;SDS011;43493;53.098;6.064;2024-01-11T05:08:25;44.78;;;28.63;;
57663;SDS011;43493;53.098;6.064;2024-01-11T05:10:51;47.03;;;29.25;;
57663;SDS011;43493;53.098;6.064;2024-01-11T05:13:17;44.63;;;29.40;;
57663;SDS011;43493;53.098;6.064;2024-01-11T05:15:43;46.72;;;30.50;;
57663;SDS011;43493;53.098;6.064;2024-01-11T05:18:09;46.37;;;30.13;;
57663;SDS011;43493;53.098;6.064;2024-01-11T05:20:35;47.85;;;29.63;;
57663;SDS011;43493;53.098;6.064;2024-01-11T05:23:01;46.57;;;30.00;;
57663;SDS011;43493;53.098;6.064;2024-01-11T05:25:27;45.00;;;30.23;;
57663;SDS011;43493;53.098;6.064;2024-01-11T05:27:53;44.93;;;29.70;;
57663;SDS011;43493;53.098;6.064;2024-01-11T05:30:18;45.60;;;30.67;;
57663;SDS011;43493;53.098;6.064;2024-01-11T05:32:44;43.93;;;29.23;;
57663;SDS011;43493;53.098;6.064;2024-01-11T05:35:10;46.53;;;29.67;;
57663;SDS011;43493;53.098;6.064;2024-01-11T05:37:36;44.00;;;30.27;;
57663;SDS011;43493;53.098;6.064;2024-01-11T05:40:01;45.92;;;30.98;;
57663;SDS011;43493;53.098;6.064;2024-01-11T05:42:28;45.95;;;29.98;;
57663;SDS011;43493;53.098;6.064;2024-01-11T05:44:53;50.40;;;30.77;;
57663;SDS011;43493;53.098;6.064;2024-01-11T05:47:19;49.27;;;31.47;;
57663;SDS011;43493;53.098;6.064;2024-01-11T05:49:45;44.07;;;29.53;;
57663;SDS011;43493;53.098;6.064;2024-01-11T05:52:11;47.22;;;30.33;;
57663;SDS011;43493;53.098;6.064;2024-01-11T05:54:37;45.60;;;30.13;;
57663;SDS011;43493;53.098;6.064;2024-01-11T05:57:02;47.13;;;31.20;;
57663;SDS011;43493;53.098;6.064;2024-01-11T05:59:28;45.60;;;30.47;;
57663;SDS011;43493;53.098;6.064;2024-01-11T06:01:54;50.87;;;32.13;;
57663;SDS011;43493;53.098;6.064;2024-01-11T06:04:20;51.20;;;33.40;;
57663;SDS011;43493;53.098;6.064;2024-01-11T06:06:45;52.17;;;33.87;;
57663;SDS011;43493;53.098;6.064;2024-01-11T06:09:11;55.00;;;36.10;;
57663;SDS011;43493;53.098;6.064;2024-01-11T06:11:37;57.80;;;35.93;;
57663;SDS011;43493;53.098;6.064;2024-01-11T06:14:02;55.03;;;34.43;;
57663;SDS011;43493;53.098;6.064;2024-01-11T06:16:28;53.77;;;34.13;;
57663;SDS011;43493;53.098;6.064;2024-01-11T06:18:54;52.00;;;33.17;;
57663;SDS011;43493;53.098;6.064;2024-01-11T06:21:20;47.20;;;32.20;;
57663;SDS011;43493;53.098;6.064;2024-01-11T06:23:45;48.63;;;32.10;;
57663;SDS011;43493;53.098;6.064;2024-01-11T06:26:11;49.27;;;32.07;;
57663;SDS011;43493;53.098;6.064;2024-01-11T06:28:37;48.87;;;32.57;;
57663;SDS011;43493;53.098;6.064;2024-01-11T06:31:03;48.80;;;30.97;;
57663;SDS011;43493;53.098;6.064;2024-01-11T06:33:28;50.50;;;31.57;;
57663;SDS011;43493;53.098;6.064;2024-01-11T06:35:54;49.40;;;31.53;;
57663;SDS011;43493;53.098;6.064;2024-01-11T06:38:21;51.47;;;32.65;;
57663;SDS011;43493;53.098;6.064;2024-01-11T06:40:47;49.40;;;32.07;;
57663;SDS011;43493;53.098;6.064;2024-01-11T06:43:13;50.58;;;32.97;;
57663;SDS011;43493;53.098;6.064;2024-01-11T06:45:40;51.83;;;33.78;;
57663;SDS011;43493;53.098;6.064;2024-01-11T06:48:07;51.67;;;32.95;;
57663;SDS011;43493;53.098;6.064;2024-01-11T06:50:33;50.80;;;32.80;;
57663;SDS011;43493;53.098;6.064;2024-01-11T06:52:59;47.03;;;30.83;;
57663;SDS011;43493;53.098;6.064;2024-01-11T06:55:26;50.08;;;31.05;;
57663;SDS011;43493;53.098;6.064;2024-01-11T06:57:51;45.57;;;30.53;;
57663;SDS011;43493;53.098;6.064;2024-01-11T07:00:17;46.53;;;31.03;;
57663;SDS011;43493;53.098;6.064;2024-01-11T07:02:43;44.90;;;30.13;;
57663;SDS011;43493;53.098;6.064;2024-01-11T07:05:09;45.87;;;30.57;;
57663;SDS011;43493;53.098;6.064;2024-01-11T07:07:34;45.23;;;30.57;;
57663;SDS011;43493;53.098;6.064;2024-01-11T07:10:01;48.00;;;31.42;;
57663;SDS011;43493;53.098;6.064;2024-01-11T07:12:27;51.77;;;32.63;;
57663;SDS011;43493;53.098;6.064;2024-01-11T07:14:53;50.33;;;31.00;;
57663;SDS011;43493;53.098;6.064;2024-01-11T07:17:18;51.50;;;32.70;;
57663;SDS011;43493;53.098;6.064;2024-01-11T07:19:44;49.57;;;32.70;;
57663;SDS011;43493;53.098;6.064;2024-01-11T07:22:10;52.93;;;32.70;;
57663;SDS011;43493;53.098;6.064;2024-01-11T07:24:36;51.13;;;33.70;;
57663;SDS011;43493;53.098;6.064;2024-01-11T07:27:05;46.75;;;31.13;;
57663;SDS011;43493;53.098;6.064;2024-01-11T07:29:31;48.67;;;33.00;;
57663;SDS011;43493;53.098;6.064;2024-01-11T07:32:00;46.35;;;31.83;;
57663;SDS011;43493;53.098;6.064;2024-01-11T07:34:26;47.08;;;31.58;;
57663;SDS011;43493;53.098;6.064;2024-01-11T07:36:52;50.85;;;32.90;;
57663;SDS011;43493;53.098;6.064;2024-01-11T07:39:18;45.67;;;30.60;;
57663;SDS011;43493;53.098;6.064;2024-01-11T07:41:44;51.65;;;32.55;;
57663;SDS011;43493;53.098;6.064;2024-01-11T07:44:10;48.80;;;32.87;;
57663;SDS011;43493;53.098;6.064;2024-01-11T07:46:36;47.70;;;32.23;;
57663;SDS011;43493;53.098;6.064;2024-01-11T07:49:02;51.43;;;32.73;;
57663;SDS011;43493;53.098;6.064;2024-01-11T07:51:28;53.67;;;33.13;;
57663;SDS011;43493;53.098;6.064;2024-01-11T07:53:54;50.07;;;33.03;;
57663;SDS011;43493;53.098;6.064;2024-01-11T07:56:19;50.83;;;33.50;;
57663;SDS011;43493;53.098;6.064;2024-01-11T07:58:45;53.27;;;32.33;;
57663;SDS011;43493;53.098;6.064;2024-01-11T08:01:11;48.58;;;31.98;;
57663;SDS011;43493;53.098;6.064;2024-01-11T08:03:37;49.90;;;33.60;;
57663;SDS011;43493;53.098;6.064;2024-01-11T08:06:03;50.60;;;33.13;;
57663;SDS011;43493;53.098;6.064;2024-01-11T08:08:32;49.22;;;33.00;;
57663;SDS011;43493;53.098;6.064;2024-01-11T08:10:59;50.05;;;32.88;;
57663;SDS011;43493;53.098;6.064;2024-01-11T08:13:24;51.37;;;32.47;;
57663;SDS011;43493;53.098;6.064;2024-01-11T08:15:50;52.07;;;34.80;;
57663;SDS011;43493;53.098;6.064;2024-01-11T08:18:18;52.53;;;33.17;;
57663;SDS011;43493;53.098;6.064;2024-01-11T08:20:44;54.45;;;34.30;;
57663;SDS011;43493;53.098;6.064;2024-01-11T08:23:10;54.77;;;35.20;;
57663;SDS011;43493;53.098;6.064;2024-01-11T08:25:36;50.85;;;33.20;;
57663;SDS011;43493;53.098;6.064;2024-01-11T08:28:02;48.80;;;32.50;;
57663;SDS011;43493;53.098;6.064;2024-01-11T08:30:28;51.88;;;33.78;;
57663;SDS011;43493;53.098;6.064;2024-01-11T08:32:54;50.17;;;33.53;;
57663;SDS011;43493;53.098;6.064;2024-01-11T08:35:20;49.92;;;33.15;;
57663;SDS011;43493;53.098;6.064;2024-01-11T08:37:46;50.20;;;32.30;;
57663;SDS011;43493;53.098;6.064;2024-01-11T08:40:12;52.28;;;34.33;;
57663;SDS011;43493;53.098;6.064;2024-01-11T08:42:38;52.17;;;34.80;;
57663;SDS011;43493;53.098;6.064;2024-01-11T08:45:06;51.42;;;34.00;;
57663;SDS011;43493;53.098;6.064;2024-01-11T08:47:33;53.25;;;34.25;;
57663;SDS011;43493;53.098;6.064;2024-01-11T08:49:59;50.65;;;33.42;;
57663;SDS011;43493;53.098;6.064;2024-01-11T08:52:25;51.80;;;34.13;;
57663;SDS011;43493;53.098;6.064;2024-01-11T08:54:51;50.47;;;32.17;;
57663;SDS011;43493;53.098;6.064;2024-01-11T08:57:16;51.17;;;33.37;;
57663;SDS011;43493;53.098;6.064;2024-01-11T08:59:42;49.90;;;33.43;;
57663;SDS011;43493;53.098;6.064;2024-01-11T09:02:08;50.67;;;33.37;;
57663;SDS011;43493;53.098;6.064;2024-01-11T09:04:34;50.70;;;33.83;;
57663;SDS011;43493;53.098;6.064;2024-01-11T09:06:59;51.53;;;34.20;;
57663;SDS011;43493;53.098;6.064;2024-01-11T09:09:25;53.07;;;34.33;;
57663;SDS011;43493;53.098;6.064;2024-01-11T09:11:51;50.93;;;34.07;;
57663;SDS011;43493;53.098;6.064;2024-01-11T09:14:17;49.60;;;33.10;;
57663;SDS011;43493;53.098;6.064;2024-01-11T09:16:42;48.97;;;33.17;;
57663;SDS011;43493;53.098;6.064;2024-01-11T09:19:10;52.65;;;35.75;;
57663;SDS011;43493;53.098;6.064;2024-01-11T09:21:35;54.90;;;34.33;;
57663;SDS011;43493;53.098;6.064;2024-01-11T09:24:01;48.57;;;32.50;;
57663;SDS011;43493;53.098;6.064;2024-01-11T09:26:27;45.87;;;31.57;;
57663;SDS011;43493;53.098;6.064;2024-01-11T09:28:53;50.80;;;34.07;;
57663;SDS011;43493;53.098;6.064;2024-01-11T09:31:19;48.37;;;33.17;;
57663;SDS011;43493;53.098;6.064;2024-01-11T09:33:44;50.40;;;33.33;;
57663;SDS011;43493;53.098;6.064;2024-01-11T09:36:10;50.70;;;33.30;;
57663;SDS011;43493;53.098;6.064;2024-01-11T09:38:37;49.53;;;32.00;;
57663;SDS011;43493;53.098;6.064;2024-01-11T09:41:06;47.67;;;32.03;;
57663;SDS011;43493;53.098;6.064;2024-01-11T09:43:34;48.13;;;31.35;;
57663;SDS011;43493;53.098;6.064;2024-01-11T09:46:03;48.53;;;31.63;;
57663;SDS011;43493;53.098;6.064;2024-01-11T09:48:31;46.00;;;31.40;;
57663;SDS011;43493;53.098;6.064;2024-01-11T09:50:59;46.60;;;31.50;;
57663;SDS011;43493;53.098;6.064;2024-01-11T09:53:32;47.88;;;31.05;;
57663;SDS011;43493;53.098;6.064;2024-01-11T09:55:59;44.22;;;30.65;;
57663;SDS011;43493;53.098;6.064;2024-01-11T09:58:25;42.05;;;29.25;;
57663;SDS011;43493;53.098;6.064;2024-01-11T10:00:55;42.30;;;28.23;;
57663;SDS011;43493;53.098;6.064;2024-01-11T10:03:24;41.78;;;28.27;;
57663;SDS011;43493;53.098;6.064;2024-01-11T10:05:51;43.28;;;29.73;;
57663;SDS011;43493;53.098;6.064;2024-01-11T10:08:22;42.88;;;28.98;;
57663;SDS011;43493;53.098;6.064;2024-01-11T10:10:48;42.00;;;29.05;;
57663;SDS011;43493;53.098;6.064;2024-01-11T10:13:14;47.80;;;30.03;;
57663;SDS011;43493;53.098;6.064;2024-01-11T10:15:41;40.65;;;28.33;;
57663;SDS011;43493;53.098;6.064;2024-01-11T10:18:08;40.00;;;27.45;;
57663;SDS011;43493;53.098;6.064;2024-01-11T10:20:34;42.63;;;28.98;;
57663;SDS011;43493;53.098;6.064;2024-01-11T10:22:59;39.40;;;26.30;;
57663;SDS011;43493;53.098;6.064;2024-01-11T10:25:27;40.45;;;28.10;;
57663;SDS011;43493;53.098;6.064;2024-01-11T10:27:53;41.30;;;28.25;;
57663;SDS011;43493;53.098;6.064;2024-01-11T10:30:19;42.97;;;28.73;;
57663;SDS011;43493;53.098;6.064;2024-01-11T10:32:47;40.13;;;27.17;;
57663;SDS011;43493;53.098;6.064;2024-01-11T10:35:13;43.70;;;29.15;;
57663;SDS011;43493;53.098;6.064;2024-01-11T10:37:39;42.38;;;28.42;;
57663;SDS011;43493;53.098;6.064;2024-01-11T10:40:08;43.70;;;29.25;;
57663;SDS011;43493;53.098;6.064;2024-01-11T10:42:44;42.08;;;28.23;;
57663;SDS011;43493;53.098;6.064;2024-01-11T10:45:15;39.92;;;27.80;;
57663;SDS011;43493;53.098;6.064;2024-01-11T10:50:27;40.42;;;27.90;;
57663;SDS011;43493;53.098;6.064;2024-01-11T10:53:03;40.58;;;27.45;;
57663;SDS011;43493;53.098;6.064;2024-01-11T10:55:36;42.13;;;27.95;;
57663;SDS011;43493;53.098;6.064;2024-01-11T10:58:03;42.03;;;27.08;;
57663;SDS011;43493;53.098;6.064;2024-01-11T11:00:30;39.80;;;26.00;;
57663;SDS011;43493;53.098;6.064;2024-01-11T11:02:57;37.83;;;25.80;;
57663;SDS011;43493;53.098;6.064;2024-01-11T11:05:28;37.70;;;25.35;;
57663;SDS011;43493;53.098;6.064;2024-01-11T11:07:57;37.22;;;25.50;;
57663;SDS011;43493;53.098;6.064;2024-01-11T11:10:26;39.88;;;27.38;;
57663;SDS011;43493;53.098;6.064;2024-01-11T11:12:54;37.22;;;25.00;;
57663;SDS011;43493;53.098;6.064;2024-01-11T11:15:23;39.47;;;25.60;;
57663;SDS011;43493;53.098;6.064;2024-01-11T11:17:49;37.63;;;24.88;;
57663;SDS011;43493;53.098;6.064;2024-01-11T11:20:15;37.78;;;25.88;;
57663;SDS011;43493;53.098;6.064;2024-01-11T11:22:41;39.72;;;26.05;;
57663;SDS011;43493;53.098;6.064;2024-01-11T11:25:08;38.45;;;25.65;;
57663;SDS011;43493;53.098;6.064;2024-01-11T11:27:35;36.95;;;24.27;;
57663;SDS011;43493;53.098;6.064;2024-01-11T11:30:02;38.78;;;25.63;;
57663;SDS011;43493;53.098;6.064;2024-01-11T11:32:39;34.67;;;24.25;;
57663;SDS011;43493;53.098;6.064;2024-01-11T11:35:08;38.85;;;24.92;;
57663;SDS011;43493;53.098;6.064;2024-01-11T11:37:37;40.10;;;24.70;;
57663;SDS011;43493;53.098;6.064;2024-01-11T11:40:07;37.97;;;24.98;;
57663;SDS011;43493;53.098;6.064;2024-01-11T11:42:35;37.00;;;24.98;;
57663;SDS011;43493;53.098;6.064;2024-01-11T11:45:01;36.87;;;23.90;;
57663;SDS011;43493;53.098;6.064;2024-01-11T11:47:35;41.53;;;25.67;;
57663;SDS011;43493;53.098;6.064;2024-01-11T11:50:09;33.97;;;23.83;;
57663;SDS011;43493;53.098;6.064;2024-01-11T11:52:38;37.65;;;25.27;;
57663;SDS011;43493;53.098;6.064;2024-01-11T11:55:05;39.08;;;25.05;;
57663;SDS011;43493;53.098;6.064;2024-01-11T11:57:33;37.72;;;24.25;;
57663;SDS011;43493;53.098;6.064;2024-01-11T11:59:59;41.05;;;24.90;;
57663;SDS011;43493;53.098;6.064;2024-01-11T12:02:31;37.28;;;24.95;;
57663;SDS011;43493;53.098;6.064;2024-01-11T12:04:57;37.85;;;25.25;;
57663;SDS011;43493;53.098;6.064;2024-01-11T12:07:23;38.87;;;25.07;;
57663;SDS011;43493;53.098;6.064;2024-01-11T12:09:50;36.05;;;24.10;;
57663;SDS011;43493;53.098;6.064;2024-01-11T12:12:17;38.42;;;24.48;;
57663;SDS011;43493;53.098;6.064;2024-01-11T12:14:45;40.05;;;25.30;;
57663;SDS011;43493;53.098;6.064;2024-01-11T12:17:15;41.67;;;26.70;;
57663;SDS011;43493;53.098;6.064;2024-01-11T12:19:41;40.42;;;25.25;;
57663;SDS011;43493;53.098;6.064;2024-01-11T12:22:07;41.63;;;26.02;;
57663;SDS011;43493;53.098;6.064;2024-01-11T12:24:33;37.13;;;24.42;;
57663;SDS011;43493;53.098;6.064;2024-01-11T12:26:59;41.00;;;25.95;;
57663;SDS011;43493;53.098;6.064;2024-01-11T12:29:28;37.33;;;24.90;;
57663;SDS011;43493;53.098;6.064;2024-01-11T12:31:56;38.38;;;23.73;;
57663;SDS011;43493;53.098;6.064;2024-01-11T12:34:23;38.35;;;23.73;;
57663;SDS011;43493;53.098;6.064;2024-01-11T12:36:50;38.63;;;24.63;;
57663;SDS011;43493;53.098;6.064;2024-01-11T12:39:18;40.65;;;25.88;;
57663;SDS011;43493;53.098;6.064;2024-01-11T12:41:47;44.15;;;25.15;;
57663;SDS011;43493;53.098;6.064;2024-01-11T12:44:14;41.50;;;26.02;;
57663;SDS011;43493;53.098;6.064;2024-01-11T12:46:42;37.35;;;25.23;;
57663;SDS011;43493;53.098;6.064;2024-01-11T12:49:09;42.73;;;23.70;;
57663;SDS011;43493;53.098;6.064;2024-01-11T12:51:35;37.58;;;23.42;;
57663;SDS011;43493;53.098;6.064;2024-01-11T12:54:01;38.22;;;23.60;;
57663;SDS011;43493;53.098;6.064;2024-01-11T12:56:29;39.88;;;24.05;;
57663;SDS011;43493;53.098;6.064;2024-01-11T12:59:05;37.90;;;24.23;;
57663;SDS011;43493;53.098;6.064;2024-01-11T13:01:31;40.60;;;22.60;;
57663;SDS011;43493;53.098;6.064;2024-01-11T13:03:57;38.85;;;23.00;;
57663;SDS011;43493;53.098;6.064;2024-01-11T13:06:24;39.40;;;24.70;;
57663;SDS011;43493;53.098;6.064;2024-01-11T13:08:50;38.63;;;23.20;;
57663;SDS011;43493;53.098;6.064;2024-01-11T13:11:17;37.97;;;22.05;;
57663;SDS011;43493;53.098;6.064;2024-01-11T13:13:45;36.90;;;23.65;;
57663;SDS011;43493;53.098;6.064;2024-01-11T13:16:12;38.60;;;22.90;;
57663;SDS011;43493;53.098;6.064;2024-01-11T13:18:39;40.72;;;22.63;;
57663;SDS011;43493;53.098;6.064;2024-01-11T13:21:05;38.00;;;23.10;;
57663;SDS011;43493;53.098;6.064;2024-01-11T13:23:37;39.05;;;22.65;;
57663;SDS011;43493;53.098;6.064;2024-01-11T13:26:05;38.88;;;21.55;;
57663;SDS011;43493;53.098;6.064;2024-01-11T13:28:31;41.95;;;21.25;;
57663;SDS011;43493;53.098;6.064;2024-01-11T13:30:58;38.65;;;20.60;;
57663;SDS011;43493;53.098;6.064;2024-01-11T13:33:25;34.50;;;20.75;;
57663;SDS011;43493;53.098;6.064;2024-01-11T13:35:50;39.17;;;21.40;;
57663;SDS011;43493;53.098;6.064;2024-01-11T13:38:16;37.73;;;20.50;;
57663;SDS011;43493;53.098;6.064;2024-01-11T13:40:42;39.72;;;22.55;;
57663;SDS011;43493;53.098;6.064;2024-01-11T13:43:08;39.27;;;21.20;;
57663;SDS011;43493;53.098;6.064;2024-01-11T13:45:35;38.00;;;20.98;;
57663;SDS011;43493;53.098;6.064;2024-01-11T13:48:04;42.47;;;21.83;;
57663;SDS011;43493;53.098;6.064;2024-01-11T13:50:31;42.50;;;23.45;;
57663;SDS011;43493;53.098;6.064;2024-01-11T13:52:57;38.70;;;22.42;;
57663;SDS011;43493;53.098;6.064;2024-01-11T13:55:23;43.30;;;23.00;;
57663;SDS011;43493;53.098;6.064;2024-01-11T13:57:49;40.17;;;22.05;;
57663;SDS011;43493;53.098;6.064;2024-01-11T14:00:16;47.35;;;23.67;;
57663;SDS011;43493;53.098;6.064;2024-01-11T14:02:43;37.22;;;21.35;;
57663;SDS011;43493;53.098;6.064;2024-01-11T14:05:12;42.53;;;22.25;;
57663;SDS011;43493;53.098;6.064;2024-01-11T14:07:40;41.42;;;21.60;;
57663;SDS011;43493;53.098;6.064;2024-01-11T14:10:06;48.25;;;22.58;;
57663;SDS011;43493;53.098;6.064;2024-01-11T14:12:34;43.45;;;21.25;;
57663;SDS011;43493;53.098;6.064;2024-01-11T14:15:03;46.22;;;21.60;;
57663;SDS011;43493;53.098;6.064;2024-01-11T14:17:30;45.72;;;21.17;;
57663;SDS011;43493;53.098;6.064;2024-01-11T14:19:57;35.08;;;20.38;;